Time;durP1;ratioP1;P1;durP2;ratioP2;P2;SDS_P1;SDS_P2;PMS_P1;PMS_P2;Temp;Humidity;BMP_temperature;BMP_pressure;BME280_temperature;BME280_humidity;BME280_pressure;Samples;Min_cycle;Max_cycle;Signal;HPM_P1;HPM_P2
2023/04/05 00:01:31;;;;;;;0.70;0.70;;;1.70;98.70;;;;;;5073430;28;20493;-84
2023/04/05 00:03:59;;;;;;;0.83;0.47;;;1.70;99.20;;;;;;5076388;28;20460;-84
2023/04/05 00:06:27;;;;;;;0.80;0.60;;;1.70;99.60;;;;;;5076235;28;20440;-84
2023/04/05 00:08:56;;;;;;;0.50;0.47;;;1.70;98.20;;;;;;5076360;28;20460;-84
2023/04/05 00:11:23;;;;;;;1.50;0.83;;;1.80;97.70;;;;;;5076819;28;20453;-84
2023/04/05 00:13:49;;;;;;;0.50;0.43;;;1.70;97.90;;;;;;5076000;28;21023;-84
2023/04/05 00:16:16;;;;;;;2.00;0.70;;;1.70;98.70;;;;;;5076025;28;20948;-84
2023/04/05 00:18:48;;;;;;;1.90;0.60;;;1.80;97.50;;;;;;5076290;28;20441;-84
2023/04/05 00:21:15;;;;;;;0.97;0.70;;;1.80;97.50;;;;;;5076289;28;20777;-84
2023/04/05 00:23:43;;;;;;;0.80;0.80;;;1.80;97.90;;;;;;5076121;28;20447;-84
2023/04/05 00:26:12;;;;;;;1.27;0.73;;;1.80;98.90;;;;;;5076154;28;20484;-84
2023/04/05 00:28:38;;;;;;;0.60;0.50;;;1.80;99.30;;;;;;5076094;28;20443;-84
2023/04/05 00:31:05;;;;;;;0.63;0.40;;;1.80;99.60;;;;;;5075986;28;20492;-84
2023/04/05 00:33:32;;;;;;;0.97;0.77;;;1.80;99.90;;;;;;5075921;28;20450;-84
2023/04/05 00:36:08;;;;;;;0.30;0.30;;;1.70;99.90;;;;;;5075658;28;20976;-84
2023/04/05 00:38:35;;;;;;;0.63;0.50;;;1.70;99.90;;;;;;5075922;28;20437;-84
2023/04/05 00:41:02;;;;;;;0.33;0.33;;;1.60;99.90;;;;;;5075812;28;20859;-84
2023/04/05 00:43:30;;;;;;;0.40;0.40;;;1.60;99.90;;;;;;5075804;28;20453;-84
2023/04/05 00:45:56;;;;;;;1.17;0.90;;;1.60;99.90;;;;;;5075483;28;20535;-84
2023/04/05 00:48:23;;;;;;;2.30;0.70;;;1.60;99.90;;;;;;5075747;28;20433;-83
2023/04/05 00:50:51;;;;;;;1.37;0.60;;;1.60;99.90;;;;;;5075330;28;20834;-83
2023/04/05 00:53:18;;;;;;;0.73;0.73;;;1.60;99.90;;;;;;5075614;28;20449;-83
2023/04/05 00:55:47;;;;;;;1.10;1.00;;;1.60;99.90;;;;;;5075541;28;20484;-83
2023/04/05 00:58:16;;;;;;;0.40;0.33;;;1.50;99.90;;;;;;5075527;28;20449;-83
2023/04/05 01:00:52;;;;;;;0.87;0.77;;;1.60;99.90;;;;;;5075406;28;20470;-83
2023/04/05 01:03:24;;;;;;;0.50;0.50;;;1.70;99.70;;;;;;5075492;28;20499;-83
2023/04/05 01:05:55;;;;;;;0.50;0.50;;;1.60;99.90;;;;;;5075143;28;20894;-83
2023/04/05 01:08:32;;;;;;;1.23;0.63;;;1.70;99.90;;;;;;5075617;28;20473;-83
2023/04/05 01:11:03;;;;;;;0.50;0.50;;;1.70;99.90;;;;;;5075333;28;20448;-83
2023/04/05 01:13:30;;;;;;;0.93;0.60;;;1.70;99.90;;;;;;5074726;28;20430;-83
2023/04/05 01:15:58;;;;;;;1.50;0.47;;;1.70;99.90;;;;;;5075167;28;20485;-83
2023/04/05 01:18:26;;;;;;;0.50;0.50;;;1.70;99.90;;;;;;5075129;28;20460;-83
2023/04/05 01:20:59;;;;;;;0.50;0.50;;;1.70;99.90;;;;;;5075017;28;20469;-83
2023/04/05 01:23:40;;;;;;;0.40;0.40;;;1.70;99.90;;;;;;5075026;28;20445;-83
2023/04/05 01:26:40;;;;;;;0.77;0.77;;;1.60;99.90;;;;;;5074771;28;20437;-82
2023/04/05 01:29:39;;;;;;;0.60;0.40;;;1.60;99.90;;;;;;5074829;28;20465;-83
2023/04/05 01:32:15;;;;;;;0.90;0.90;;;1.60;99.90;;;;;;5070203;28;20783;-83
2023/04/05 01:34:50;;;;;;;0.50;0.50;;;1.50;99.90;;;;;;5078652;28;20546;-81
2023/04/05 01:37:20;;;;;;;0.37;0.33;;;1.50;99.90;;;;;;5080217;28;20437;-82
2023/04/05 01:39:49;;;;;;;0.70;0.70;;;1.50;99.90;;;;;;5084545;28;20469;-82
2023/04/05 01:42:21;;;;;;;0.40;0.40;;;1.50;99.90;;;;;;5077905;28;20448;-83
2023/04/05 01:44:48;;;;;;;0.70;0.50;;;1.50;99.90;;;;;;5074722;28;20457;-83
2023/04/05 01:47:16;;;;;;;0.50;0.50;;;1.50;99.90;;;;;;5074182;28;20481;-83
2023/04/05 01:49:43;;;;;;;0.70;0.50;;;1.50;99.90;;;;;;5074155;28;20468;-83
2023/04/05 01:52:10;;;;;;;2.77;0.80;;;1.50;99.90;;;;;;5074440;28;20448;-83
2023/04/05 01:54:36;;;;;;;1.73;0.50;;;1.50;99.90;;;;;;5074173;28;20988;-83
2023/04/05 01:57:04;;;;;;;0.93;0.90;;;1.50;99.90;;;;;;5074113;28;20446;-83
2023/04/05 01:59:31;;;;;;;0.80;0.50;;;1.50;99.90;;;;;;5074281;28;20466;-83
2023/04/05 02:01:58;;;;;;;0.83;0.83;;;1.50;99.90;;;;;;5074279;28;20465;-83
2023/04/05 02:04:26;;;;;;;4.03;0.70;;;1.40;99.90;;;;;;5074251;28;20441;-83
2023/04/05 02:06:53;;;;;;;0.40;0.40;;;1.40;99.90;;;;;;5073878;28;20960;-83
2023/04/05 02:09:20;;;;;;;0.40;0.30;;;1.40;99.90;;;;;;5074039;28;20469;-83
2023/04/05 02:11:46;;;;;;;1.67;1.03;;;1.40;99.90;;;;;;5074590;28;20956;-83
2023/04/05 02:14:13;;;;;;;1.37;0.70;;;1.40;99.90;;;;;;5073968;28;20453;-83
2023/04/05 02:16:40;;;;;;;5.83;1.03;;;1.40;99.90;;;;;;5073709;28;20446;-83
2023/04/05 02:19:06;;;;;;;0.40;0.30;;;1.30;99.90;;;;;;5073598;28;20479;-83
2023/04/05 02:21:35;;;;;;;1.80;0.77;;;1.30;99.90;;;;;;5073928;28;20457;-83
2023/04/05 02:24:02;;;;;;;0.50;0.50;;;1.30;99.90;;;;;;5073840;28;20481;-83
2023/04/05 02:26:29;;;;;;;0.80;0.80;;;1.20;99.90;;;;;;5073030;28;20424;-83
2023/04/05 02:28:56;;;;;;;2.03;1.93;;;1.20;99.90;;;;;;5073793;28;20478;-83
2023/04/05 02:31:22;;;;;;;0.40;0.40;;;1.20;99.90;;;;;;5073759;28;20461;-83
2023/04/05 02:33:49;;;;;;;0.40;0.30;;;1.20;99.90;;;;;;5073734;28;20880;-83
2023/04/05 02:36:17;;;;;;;2.10;0.93;;;1.20;99.90;;;;;;5073648;28;20485;-83
2023/04/05 02:38:45;;;;;;;3.23;0.90;;;1.20;99.90;;;;;;5073328;28;20491;-83
2023/04/05 02:41:12;;;;;;;0.30;0.30;;;1.20;99.90;;;;;;5073642;28;20457;-83
2023/04/05 02:43:39;;;;;;;1.37;0.40;;;1.10;99.90;;;;;;5073619;28;20446;-83
2023/04/05 02:46:06;;;;;;;1.13;0.57;;;1.10;99.90;;;;;;5073233;28;20476;-83
2023/04/05 02:48:32;;;;;;;0.50;0.50;;;1.10;99.90;;;;;;5073618;28;20449;-83
2023/04/05 02:50:59;;;;;;;0.50;0.50;;;1.00;99.90;;;;;;5073475;28;20473;-83
2023/04/05 02:53:26;;;;;;;3.17;0.80;;;0.90;99.90;;;;;;5073464;28;20793;-83
2023/04/05 02:55:55;;;;;;;0.67;0.67;;;0.80;99.90;;;;;;5073378;28;20486;-83
2023/04/05 02:58:23;;;;;;;0.80;0.70;;;0.70;99.90;;;;;;5073458;28;20449;-83
2023/04/05 03:00:51;;;;;;;0.30;0.30;;;0.80;99.90;;;;;;5073363;28;20479;-83
2023/04/05 03:03:18;;;;;;;0.67;0.60;;;0.70;99.90;;;;;;5073373;28;20886;-83
2023/04/05 03:05:45;;;;;;;1.67;0.77;;;0.80;99.90;;;;;;5073017;28;20503;-83
2023/04/05 03:08:17;;;;;;;0.37;0.37;;;0.70;99.90;;;;;;5073349;28;20454;-83
2023/04/05 03:10:44;;;;;;;0.50;0.50;;;0.70;99.90;;;;;;5073290;28;20475;-83
2023/04/05 03:13:13;;;;;;;1.17;0.77;;;0.80;99.90;;;;;;5073324;28;20818;-83
2023/04/05 03:15:39;;;;;;;0.30;0.30;;;0.80;99.90;;;;;;5073259;28;21017;-83
2023/04/05 03:18:06;;;;;;;1.13;0.90;;;0.70;99.90;;;;;;5072957;28;20956;-83
2023/04/05 03:20:38;;;;;;;0.40;0.40;;;0.70;99.90;;;;;;5073227;28;20472;-83
2023/04/05 03:23:06;;;;;;;0.40;0.40;;;0.70;99.90;;;;;;5073267;28;20495;-83
2023/04/05 03:25:33;;;;;;;3.90;0.67;;;0.70;99.90;;;;;;5073162;28;20445;-83
2023/04/05 03:28:01;;;;;;;0.40;0.40;;;0.70;99.90;;;;;;5073397;28;20452;-83
2023/04/05 03:30:29;;;;;;;0.67;0.60;;;0.60;99.90;;;;;;5078065;28;20497;-83
2023/04/05 03:32:56;;;;;;;0.30;0.30;;;0.60;99.90;;;;;;5073266;28;20494;-83
2023/04/05 03:35:23;;;;;;;1.23;0.50;;;0.60;99.90;;;;;;5073093;28;20520;-83
2023/04/05 03:37:50;;;;;;;0.50;0.37;;;0.60;99.90;;;;;;5075888;28;20453;-82
2023/04/05 03:40:17;;;;;;;0.47;0.47;;;0.60;99.90;;;;;;5077264;28;20451;-83
2023/04/05 03:42:44;;;;;;;0.63;0.40;;;0.50;99.90;;;;;;5077204;28;20460;-83
2023/04/05 03:45:11;;;;;;;0.40;0.30;;;0.50;99.90;;;;;;5077171;28;20445;-83
2023/04/05 03:47:40;;;;;;;2.67;1.00;;;0.40;99.90;;;;;;5076935;28;20497;-83
2023/04/05 03:50:08;;;;;;;0.50;0.50;;;0.40;99.90;;;;;;5076492;28;20976;-83
2023/04/05 03:52:35;;;;;;;1.47;1.47;;;0.30;99.90;;;;;;5076815;28;20412;-83
2023/04/05 03:55:02;;;;;;;0.40;0.40;;;0.30;99.90;;;;;;5076654;28;20481;-79
2023/04/05 03:57:29;;;;;;;0.40;0.40;;;0.30;99.90;;;;;;5076665;28;20449;-79
2023/04/05 03:59:56;;;;;;;1.27;0.50;;;0.30;99.90;;;;;;5076234;28;20980;-79
2023/04/05 04:02:23;;;;;;;0.30;0.30;;;0.30;99.90;;;;;;5076591;28;20445;-79
2023/04/05 04:04:52;;;;;;;1.67;1.13;;;0.20;99.90;;;;;;5076508;28;20454;-79
2023/04/05 04:07:19;;;;;;;0.30;0.30;;;0.10;99.90;;;;;;5076484;28;20536;-79
2023/04/05 04:09:46;;;;;;;0.60;0.60;;;0.10;99.90;;;;;;5076402;28;20535;-79
2023/04/05 04:12:12;;;;;;;0.50;0.40;;;0.00;99.90;;;;;;5076097;28;20968;-79
2023/04/05 04:14:39;;;;;;;0.80;0.70;;;0.00;99.90;;;;;;5076276;28;20447;-79
2023/04/05 04:17:06;;;;;;;0.30;0.27;;;-0.10;99.90;;;;;;5075983;28;20456;-79
2023/04/05 04:19:33;;;;;;;2.93;0.60;;;-0.10;99.90;;;;;;5076178;28;20472;-79
2023/04/05 04:22:01;;;;;;;1.50;0.50;;;-0.10;99.90;;;;;;5076235;28;20442;-79
2023/04/05 04:24:31;;;;;;;0.50;0.50;;;-0.10;99.90;;;;;;5076165;28;20428;-79
2023/04/05 04:26:58;;;;;;;0.40;0.40;;;-0.10;99.90;;;;;;5076921;28;20441;-79
2023/04/05 04:29:29;;;;;;;1.23;0.90;;;0.00;99.90;;;;;;5075709;28;20496;-79
2023/04/05 04:31:56;;;;;;;0.40;0.40;;;-0.10;99.90;;;;;;5076061;28;20472;-82
2023/04/05 04:34:24;;;;;;;0.40;0.40;;;-0.10;99.90;;;;;;5076021;28;20835;-82
2023/04/05 04:36:59;;;;;;;0.53;0.53;;;-0.10;99.90;;;;;;5075962;28;20451;-82
2023/04/05 04:39:30;;;;;;;0.63;0.63;;;-0.10;99.90;;;;;;5075834;28;20477;-82
2023/04/05 04:41:57;;;;;;;1.03;0.80;;;-0.20;99.90;;;;;;5075718;28;20429;-82
2023/04/05 04:44:29;;;;;;;1.37;1.13;;;-0.20;99.90;;;;;;5075842;28;20528;-82
2023/04/05 04:46:56;;;;;;;2.17;1.23;;;-0.20;99.90;;;;;;5075465;28;20456;-82
2023/04/05 04:49:23;;;;;;;0.63;0.53;;;-0.20;99.90;;;;;;5074652;28;20464;-82
2023/04/05 04:51:50;;;;;;;0.90;0.90;;;-0.20;99.90;;;;;;5075382;28;20916;-82
2023/04/05 04:54:19;;;;;;;0.70;0.70;;;-0.20;99.90;;;;;;5075673;28;20420;-82
2023/04/05 04:56:47;;;;;;;1.53;0.93;;;-0.30;99.90;;;;;;5075553;28;20452;-82
2023/04/05 04:59:14;;;;;;;0.40;0.40;;;-0.30;99.90;;;;;;5075467;28;20497;-82
2023/04/05 05:01:44;;;;;;;0.60;0.60;;;-0.30;99.90;;;;;;5075878;28;20412;-81
2023/04/05 05:04:11;;;;;;;0.70;0.70;;;-0.30;99.90;;;;;;5076268;28;20416;-81
2023/04/05 05:06:37;;;;;;;0.50;0.50;;;-0.20;99.90;;;;;;5075156;28;20427;-82
2023/04/05 05:09:05;;;;;;;0.33;0.33;;;-0.20;99.90;;;;;;5075242;28;20426;-81
2023/04/05 05:11:32;;;;;;;2.20;0.63;;;-0.20;99.90;;;;;;5075405;28;20420;-82
2023/04/05 05:14:00;;;;;;;0.40;0.40;;;-0.20;99.90;;;;;;5075005;28;20920;-82
2023/04/05 05:16:27;;;;;;;0.63;0.63;;;-0.20;99.90;;;;;;5075278;28;20489;-82
2023/04/05 05:18:55;;;;;;;3.73;0.87;;;-0.10;99.90;;;;;;5075093;28;20424;-81
2023/04/05 05:21:21;;;;;;;0.47;0.47;;;0.00;99.90;;;;;;5075188;28;20456;-82
2023/04/05 05:23:49;;;;;;;0.50;0.50;;;0.10;99.90;;;;;;5074800;28;20763;-81
2023/04/05 05:26:16;;;;;;;0.63;0.63;;;0.10;99.90;;;;;;5074681;28;20870;-81
2023/04/05 05:28:44;;;;;;;1.47;0.53;;;0.10;99.90;;;;;;5075050;28;20420;-82
2023/04/05 05:31:13;;;;;;;1.70;0.90;;;0.20;99.90;;;;;;5074608;28;20956;-82
2023/04/05 05:33:39;;;;;;;2.60;1.57;;;0.20;99.90;;;;;;5074882;28;20446;-81
2023/04/05 05:36:07;;;;;;;1.13;0.93;;;0.20;99.90;;;;;;5074706;28;20479;-81
2023/04/05 05:38:34;;;;;;;0.30;0.30;;;0.30;99.90;;;;;;5074784;28;20449;-81
2023/04/05 05:41:01;;;;;;;1.10;0.70;;;0.30;99.90;;;;;;5074680;28;20473;-82
2023/04/05 05:43:27;;;;;;;0.53;0.53;;;0.40;99.90;;;;;;5074675;28;20450;-81
2023/04/05 05:45:54;;;;;;;0.67;0.57;;;0.40;99.90;;;;;;5074104;28;20480;-81
2023/04/05 05:48:22;;;;;;;5.30;0.93;;;0.40;99.90;;;;;;5074590;28;20522;-81
2023/04/05 05:50:49;;;;;;;0.63;0.63;;;0.40;99.90;;;;;;5074550;28;20439;-82
2023/04/05 05:53:16;;;;;;;1.17;0.70;;;0.50;99.90;;;;;;5074214;28;20456;-81
2023/04/05 05:55:42;;;;;;;0.50;0.50;;;0.50;99.90;;;;;;5074397;28;20477;-82
2023/04/05 05:58:09;;;;;;;0.40;0.30;;;0.60;99.90;;;;;;5074088;28;20416;-81
2023/04/05 06:00:37;;;;;;;0.50;0.50;;;0.70;99.90;;;;;;5074199;28;20469;-81
2023/04/05 06:03:04;;;;;;;1.23;0.90;;;0.70;99.90;;;;;;5073890;28;20449;-82
2023/04/05 06:05:32;;;;;;;0.90;0.90;;;0.80;99.90;;;;;;5074213;28;20480;-81
2023/04/05 06:07:59;;;;;;;1.17;0.60;;;0.90;99.90;;;;;;5074222;28;20817;-82
2023/04/05 06:10:26;;;;;;;0.40;0.40;;;0.90;99.90;;;;;;5073803;28;20465;-82
2023/04/05 06:12:53;;;;;;;0.50;0.50;;;0.90;99.90;;;;;;5073792;28;20776;-82
2023/04/05 06:15:20;;;;;;;3.40;0.67;;;0.90;99.90;;;;;;5074006;28;20424;-82
2023/04/05 06:17:46;;;;;;;0.90;0.90;;;1.00;99.90;;;;;;5073739;28;20452;-82
2023/04/05 06:20:14;;;;;;;0.50;0.50;;;1.00;99.90;;;;;;5073933;28;20469;-82
2023/04/05 06:22:43;;;;;;;0.30;0.30;;;1.10;99.90;;;;;;5073935;28;20882;-82
2023/04/05 06:25:11;;;;;;;2.33;1.07;;;1.20;99.90;;;;;;5073559;28;20456;-82
2023/04/05 06:27:38;;;;;;;0.60;0.60;;;1.50;99.90;;;;;;5073506;28;20853;-82
2023/04/05 06:30:06;;;;;;;1.27;0.70;;;2.10;99.90;;;;;;5073751;28;20476;-82
2023/04/05 06:32:32;;;;;;;1.47;1.03;;;2.90;99.90;;;;;;5074558;28;20905;-82
2023/04/05 06:35:02;;;;;;;2.00;1.20;;;3.70;99.90;;;;;;5074460;28;20412;-82
2023/04/05 06:37:29;;;;;;;0.60;0.60;;;4.50;99.90;;;;;;5074237;28;20473;-82
2023/04/05 06:39:57;;;;;;;0.87;0.83;;;5.10;99.90;;;;;;5073415;28;20474;-83
2023/04/05 06:42:24;;;;;;;1.30;1.23;;;5.60;99.90;;;;;;5073387;28;20817;-82
2023/04/05 06:44:51;;;;;;;1.63;1.20;;;5.80;99.90;;;;;;5073680;28;20430;-83
2023/04/05 06:47:17;;;;;;;1.77;1.67;;;5.80;99.90;;;;;;5073241;28;20485;-83
2023/04/05 06:49:44;;;;;;;1.80;1.30;;;5.70;99.90;;;;;;5073510;28;20473;-83
2023/04/05 06:52:11;;;;;;;1.40;1.17;;;5.50;99.90;;;;;;5073650;28;20433;-82
2023/04/05 06:54:38;;;;;;;0.97;0.70;;;5.20;99.90;;;;;;5073766;28;20434;-83
2023/04/05 06:57:06;;;;;;;2.57;1.23;;;5.10;99.90;;;;;;5073112;28;20531;-83
2023/04/05 06:59:33;;;;;;;1.53;1.03;;;4.90;99.90;;;;;;5073374;28;20472;-83
2023/04/05 07:02:00;;;;;;;1.20;1.00;;;4.70;99.90;;;;;;5073088;28;20446;-83
2023/04/05 07:04:31;;;;;;;7.90;1.00;;;4.60;99.90;;;;;;5073350;28;20449;-83
2023/04/05 07:07:00;;;;;;;1.13;0.73;;;4.50;99.90;;;;;;5073396;28;20437;-83
2023/04/05 07:09:29;;;;;;;1.37;0.60;;;4.50;99.90;;;;;;5073240;28;20526;-83
2023/04/05 07:11:56;;;;;;;2.10;0.73;;;4.50;99.90;;;;;;5072805;28;20453;-83
2023/04/05 07:14:24;;;;;;;1.70;1.13;;;4.50;99.90;;;;;;5073010;28;20933;-83
2023/04/05 07:16:52;;;;;;;2.50;1.50;;;4.60;99.90;;;;;;5073219;28;20484;-83
2023/04/05 07:19:19;;;;;;;1.73;1.63;;;4.70;99.90;;;;;;5072838;28;20826;-83
2023/04/05 07:21:45;;;;;;;1.63;0.77;;;4.80;99.90;;;;;;5073270;28;20449;-83
2023/04/05 07:24:12;;;;;;;1.53;1.43;;;5.00;99.90;;;;;;5073269;28;20940;-83
2023/04/05 07:26:39;;;;;;;2.10;1.13;;;5.40;99.90;;;;;;5073182;28;20441;-83
2023/04/05 07:29:07;;;;;;;2.20;1.13;;;6.10;99.90;;;;;;5073136;28;20469;-83
2023/04/05 07:31:35;;;;;;;0.87;0.70;;;7.20;99.90;;;;;;5073112;28;20481;-83
2023/04/05 07:34:02;;;;;;;0.60;0.60;;;8.40;97.60;;;;;;5073154;28;20452;-83
2023/04/05 07:36:29;;;;;;;1.53;0.80;;;9.10;95.60;;;;;;5072969;28;20473;-84
2023/04/05 07:38:56;;;;;;;1.90;1.17;;;9.70;93.10;;;;;;5072976;28;20453;-83
2023/04/05 07:41:24;;;;;;;1.40;0.80;;;9.90;92.00;;;;;;5073048;28;20445;-84
2023/04/05 07:43:51;;;;;;;3.77;1.90;;;9.90;92.00;;;;;;5073075;28;20448;-84
2023/04/05 07:46:17;;;;;;;3.43;1.50;;;10.00;89.00;;;;;;5072648;28;20858;-84
2023/04/05 07:48:48;;;;;;;1.70;1.47;;;10.20;88.00;;;;;;5072974;28;20457;-84
2023/04/05 07:51:15;;;;;;;4.67;1.77;;;10.00;84.70;;;;;;5073020;28;20452;-84
2023/04/05 07:53:42;;;;;;;2.30;1.80;;;10.30;83.20;;;;;;5072865;28;20450;-84
2023/04/05 07:56:12;;;;;;;3.20;2.20;;;10.60;81.70;;;;;;5072788;28;20846;-84
2023/04/05 07:58:39;;;;;;;2.40;1.43;;;10.70;80.60;;;;;;5072594;28;20933;-83
2023/04/05 08:01:07;;;;;;;1.80;1.70;;;10.50;77.30;;;;;;5072368;28;20501;-84
2023/04/05 08:03:34;;;;;;;5.30;1.80;;;10.30;74.20;;;;;;5072799;28;20817;-83
2023/04/05 08:06:10;;;;;;;2.83;1.93;;;10.00;76.10;;;;;;5072760;28;20450;-83
2023/04/05 08:08:37;;;;;;;2.40;1.30;;;9.60;77.50;;;;;;5072840;28;20430;-83
2023/04/05 08:11:04;;;;;;;3.73;1.60;;;9.20;77.10;;;;;;5072400;28;20466;-81
2023/04/05 08:13:32;;;;;;;1.60;1.50;;;9.00;75.70;;;;;;5072744;28;20445;-84
2023/04/05 08:16:00;;;;;;;3.20;1.37;;;8.80;79.50;;;;;;5072635;28;20507;-83
2023/04/05 08:18:26;;;;;;;1.10;1.00;;;8.50;78.40;;;;;;5072767;28;20434;-83
2023/04/05 08:20:54;;;;;;;1.70;1.23;;;8.50;78.00;;;;;;5072662;28;20476;-83
2023/04/05 08:23:23;;;;;;;3.37;0.80;;;8.40;78.50;;;;;;5072737;28;20437;-84
2023/04/05 08:25:50;;;;;;;0.90;0.87;;;8.40;78.80;;;;;;5076526;28;20822;-84
2023/04/05 08:28:17;;;;;;;2.37;1.93;;;8.40;75.00;;;;;;5075943;28;20449;-83
2023/04/05 08:30:44;;;;;;;1.93;1.40;;;8.30;75.30;;;;;;5075766;28;20461;-83
2023/04/05 08:33:10;;;;;;;4.70;2.07;;;8.20;73.70;;;;;;5075742;28;20459;-83
2023/04/05 08:35:38;;;;;;;1.00;0.93;;;8.10;73.00;;;;;;5075772;28;20457;-84
2023/04/05 08:38:06;;;;;;;1.17;1.07;;;8.10;73.20;;;;;;5075924;28;20503;-83
2023/04/05 08:40:41;;;;;;;1.23;1.10;;;7.90;73.50;;;;;;5075922;28;20827;-84
2023/04/05 08:43:12;;;;;;;1.30;0.83;;;8.00;75.40;;;;;;5075625;28;20429;-84
2023/04/05 08:45:46;;;;;;;2.40;1.07;;;8.20;75.00;;;;;;5075282;28;20985;-83
2023/04/05 08:48:13;;;;;;;2.07;1.10;;;8.40;74.50;;;;;;5075866;28;20454;-84
2023/04/05 08:50:40;;;;;;;1.73;1.50;;;8.60;75.00;;;;;;5075727;28;20496;-83
2023/04/05 08:53:09;;;;;;;2.87;1.10;;;8.70;74.20;;;;;;5075714;28;20489;-83
2023/04/05 08:55:37;;;;;;;1.50;1.40;;;9.00;70.90;;;;;;5075686;28;20534;-83
2023/04/05 08:58:10;;;;;;;0.83;0.83;;;9.30;71.40;;;;;;5075562;28;20477;-83
2023/04/05 09:00:38;;;;;;;1.87;0.90;;;9.70;67.60;;;;;;5075533;28;20554;-83
2023/04/05 09:03:06;;;;;;;0.90;0.90;;;10.30;66.40;;;;;;5075563;28;20524;-83
2023/04/05 09:05:33;;;;;;;2.80;1.20;;;11.30;62.50;;;;;;5075494;28;20445;-83
2023/04/05 09:08:01;;;;;;;1.83;1.03;;;12.50;59.00;;;;;;5075465;28;20450;-83
2023/04/05 09:10:29;;;;;;;2.10;1.60;;;14.10;56.60;;;;;;5075317;28;20470;-84
2023/04/05 09:12:58;;;;;;;2.33;1.10;;;16.00;53.10;;;;;;5075321;28;20445;-84
2023/04/05 09:15:25;;;;;;;3.70;1.47;;;17.50;47.50;;;;;;5075328;28;20437;-84
2023/04/05 09:17:54;;;;;;;1.10;1.10;;;18.40;46.70;;;;;;5075126;28;20564;-83
2023/04/05 09:20:20;;;;;;;4.63;1.97;;;18.70;44.60;;;;;;5075181;28;20465;-84
2023/04/05 09:22:47;;;;;;;2.23;1.60;;;17.90;41.60;;;;;;5074892;28;20430;-84
2023/04/05 09:25:34;;;;;;;3.40;1.63;;;17.80;42.70;;;;;;5075097;28;20449;-84
2023/04/05 09:28:03;;;;;;;1.27;1.13;;;17.60;40.90;;;;;;5075073;28;20438;-83
2023/04/05 09:30:30;;;;;;;1.97;1.77;;;17.70;41.70;;;;;;5074992;28;20929;-84
2023/04/05 09:32:57;;;;;;;2.80;2.20;;;18.10;40.60;;;;;;5075364;28;20506;-84
2023/04/05 09:35:25;;;;;;;2.77;1.73;;;18.50;39.40;;;;;;5074494;28;20453;-84
2023/04/05 09:37:53;;;;;;;3.50;2.30;;;19.50;40.60;;;;;;5074480;28;20988;-84
2023/04/05 09:40:20;;;;;;;1.60;1.43;;;20.40;38.60;;;;;;5074770;28;20477;-84
2023/04/05 09:42:48;;;;;;;1.80;1.63;;;21.20;38.50;;;;;;5074444;28;20456;-84
2023/04/05 09:45:17;;;;;;;2.17;1.90;;;21.80;36.10;;;;;;5074560;28;20449;-83
2023/04/05 09:47:54;;;;;;;2.23;1.70;;;22.20;34.70;;;;;;5074696;28;20457;-83
2023/04/05 09:50:21;;;;;;;3.40;1.77;;;20.70;32.60;;;;;;5074542;28;20472;-83
2023/04/05 09:52:48;;;;;;;2.60;1.60;;;19.80;33.80;;;;;;5074560;28;20450;-84
2023/04/05 09:55:25;;;;;;;2.97;1.53;;;19.50;35.30;;;;;;5074504;28;20473;-83
2023/04/05 09:57:52;;;;;;;1.97;1.43;;;19.60;37.00;;;;;;5074363;28;20556;-83
2023/04/05 10:00:21;;;;;;;3.57;2.43;;;20.30;38.10;;;;;;5073945;28;20465;-80
2023/04/05 10:02:53;;;;;;;1.57;1.47;;;20.60;35.50;;;;;;5074101;28;20456;-82
2023/04/05 10:05:23;;;;;;;2.20;2.10;;;20.10;33.80;;;;;;5074250;28;20438;-84
2023/04/05 10:07:50;;;;;;;2.80;2.40;;;19.70;35.50;;;;;;5074146;28;20433;-86
2023/04/05 10:10:17;;;;;;;1.87;1.50;;;19.50;35.40;;;;;;5074034;28;20526;-83
2023/04/05 10:12:46;;;;;;;3.07;1.77;;;19.50;35.00;;;;;;5074163;28;20442;-83
2023/04/05 10:15:13;;;;;;;1.50;1.33;;;18.80;35.30;;;;;;5074069;28;20449;-83
2023/04/05 10:17:48;;;;;;;3.60;1.90;;;18.30;36.20;;;;;;5073949;28;20917;-83
2023/04/05 10:20:16;;;;;;;3.97;1.87;;;18.20;37.70;;;;;;5073931;28;20470;-83
2023/04/05 10:22:59;;;;;;;2.43;2.20;;;17.80;35.60;;;;;;5073902;28;20446;-83
2023/04/05 10:25:32;;;;;;;2.00;1.80;;;17.50;38.40;;;;;;5073952;28;20430;-83
2023/04/05 10:28:04;;;;;;;1.30;1.20;;;17.60;38.00;;;;;;5073598;28;20898;-83
2023/04/05 10:30:35;;;;;;;2.10;2.00;;;18.00;39.30;;;;;;5073449;28;21007;-83
2023/04/05 10:33:11;;;;;;;2.27;1.07;;;18.70;37.90;;;;;;5073820;28;20426;-83
2023/04/05 10:35:50;;;;;;;1.97;1.47;;;18.90;35.30;;;;;;5073849;28;20468;-83
2023/04/05 10:38:22;;;;;;;1.60;1.40;;;19.50;35.60;;;;;;5073711;28;20474;-83
2023/04/05 10:40:57;;;;;;;3.70;1.70;;;19.20;34.20;;;;;;5073640;28;20465;-83
2023/04/05 10:43:25;;;;;;;3.13;1.80;;;19.00;33.90;;;;;;5073727;28;20430;-83
2023/04/05 10:45:54;;;;;;;1.90;1.70;;;19.00;35.30;;;;;;5072920;28;20473;-83
2023/04/05 10:48:34;;;;;;;2.23;1.23;;;19.20;33.10;;;;;;5073430;28;20521;-83
2023/04/05 10:51:02;;;;;;;1.90;1.70;;;18.90;33.50;;;;;;5073516;28;20497;-83
2023/04/05 10:53:31;;;;;;;1.93;1.83;;;19.20;34.40;;;;;;5073534;28;20504;-82
2023/04/05 10:56:01;;;;;;;1.63;1.53;;;20.20;35.90;;;;;;5072198;28;20485;-82
2023/04/05 10:58:28;;;;;;;4.57;2.23;;;20.80;35.30;;;;;;5073418;28;20489;-82
2023/04/05 11:00:56;;;;;;;1.83;1.53;;;21.60;31.40;;;;;;5073389;28;20476;-82
2023/04/05 11:03:46;;;;;;;2.13;1.30;;;22.00;33.40;;;;;;5073311;28;20449;-81
2023/04/05 11:06:21;;;;;;;1.80;1.00;;;21.80;31.70;;;;;;5073430;28;20487;-82
2023/04/05 11:08:51;;;;;;;1.77;1.67;;;20.80;30.60;;;;;;5073270;28;20448;-81
2023/04/05 11:11:18;;;;;;;4.87;2.03;;;19.30;33.40;;;;;;5073052;28;20952;-82
2023/04/05 11:13:49;;;;;;;2.40;1.93;;;17.80;36.30;;;;;;5073342;28;20446;-82
2023/04/05 11:16:16;;;;;;;1.57;1.43;;;16.70;36.80;;;;;;5073303;28;20871;-82
2023/04/05 11:18:47;;;;;;;2.33;1.70;;;15.70;38.60;;;;;;5073243;28;20842;-82
2023/04/05 11:21:21;;;;;;;3.80;1.20;;;14.40;37.70;;;;;;5073286;28;20492;-81
2023/04/05 11:24:03;;;;;;;3.00;1.63;;;13.40;39.80;;;;;;5072961;28;20483;-81
2023/04/05 11:26:53;;;;;;;2.23;1.40;;;12.70;40.90;;;;;;5073265;28;20426;-83
2023/04/05 11:29:45;;;;;;;2.50;1.30;;;12.30;40.80;;;;;;5073140;28;20523;-82
2023/04/05 11:32:13;;;;;;;3.13;2.13;;;11.90;41.80;;;;;;5073186;28;20434;-82
2023/04/05 11:34:44;;;;;;;1.90;1.57;;;11.90;41.60;;;;;;5072792;28;20450;-82
2023/04/05 11:37:12;;;;;;;1.37;1.27;;;11.80;41.80;;;;;;5072910;28;20432;-82
2023/04/05 11:39:40;;;;;;;2.30;1.90;;;11.80;43.20;;;;;;5072745;28;20469;-82
2023/04/05 11:42:11;;;;;;;1.43;1.33;;;11.90;45.00;;;;;;5072581;28;20445;-81
2023/04/05 11:44:43;;;;;;;2.40;1.27;;;11.70;43.70;;;;;;5073044;28;20434;-81
2023/04/05 11:47:10;;;;;;;1.83;1.70;;;11.70;42.70;;;;;;5072467;28;20484;-81
2023/04/05 11:49:38;;;;;;;1.43;1.10;;;11.50;42.50;;;;;;5072575;28;20473;-81
2023/04/05 11:52:14;;;;;;;2.50;1.43;;;11.40;45.70;;;;;;5072572;28;20449;-81
2023/04/05 11:54:44;;;;;;;2.00;1.43;;;11.30;43.90;;;;;;5072889;28;20629;-81
2023/04/05 11:57:16;;;;;;;1.67;1.47;;;11.40;43.00;;;;;;5072626;28;20905;-81
2023/04/05 11:59:43;;;;;;;2.57;1.30;;;11.20;43.50;;;;;;5076261;28;21064;-81
2023/04/05 12:02:10;;;;;;;1.60;1.43;;;11.20;42.90;;;;;;5076680;28;20449;-81
2023/04/05 12:04:37;;;;;;;1.40;0.97;;;11.00;43.40;;;;;;5076622;28;20791;-81
2023/04/05 12:07:19;;;;;;;1.40;1.30;;;10.80;44.40;;;;;;5076236;28;20441;-81
2023/04/05 12:10:00;;;;;;;1.37;0.90;;;10.70;43.30;;;;;;5076100;28;21057;-80
2023/04/05 12:12:26;;;;;;;2.37;1.43;;;10.50;42.90;;;;;;5076159;28;20445;-81
2023/04/05 12:14:59;;;;;;;1.63;1.10;;;10.20;43.20;;;;;;5076411;28;20456;-81
2023/04/05 12:17:42;;;;;;;0.80;0.80;;;10.20;43.90;;;;;;5076179;28;20430;-81
2023/04/05 12:20:09;;;;;;;3.07;1.47;;;10.00;43.80;;;;;;5076269;28;20519;-81
2023/04/05 12:22:40;;;;;;;3.80;1.77;;;9.80;46.40;;;;;;5076241;28;20461;-81
2023/04/05 12:25:07;;;;;;;1.43;1.27;;;9.90;46.30;;;;;;5076253;28;20434;-80
2023/04/05 12:27:35;;;;;;;1.80;1.50;;;9.90;46.90;;;;;;5076132;28;20445;-81
2023/04/05 12:30:09;;;;;;;3.33;1.73;;;9.80;49.10;;;;;;5076007;28;20473;-81
2023/04/05 12:32:44;;;;;;;2.63;1.50;;;9.80;48.40;;;;;;5076315;28;20433;-81
2023/04/05 12:35:12;;;;;;;1.40;1.07;;;9.90;47.90;;;;;;5076006;28;20430;-82
2023/04/05 12:37:41;;;;;;;1.40;1.23;;;10.00;46.20;;;;;;5075627;28;20540;-81
2023/04/05 12:40:09;;;;;;;1.60;1.23;;;9.90;45.60;;;;;;5075861;28;20477;-81
2023/04/05 12:42:37;;;;;;;1.60;1.30;;;9.80;45.50;;;;;;5075855;28;20463;-81
2023/04/05 12:45:05;;;;;;;4.90;1.70;;;9.70;45.90;;;;;;5075764;28;20827;-80
2023/04/05 12:47:36;;;;;;;3.20;1.23;;;9.70;46.10;;;;;;5075252;28;20481;-81
2023/04/05 12:50:13;;;;;;;3.77;1.10;;;9.60;46.10;;;;;;5075457;28;20473;-81
2023/04/05 12:52:53;;;;;;;2.23;1.20;;;9.40;47.00;;;;;;5075616;28;20468;-81
2023/04/05 12:55:21;;;;;;;6.10;1.87;;;9.20;48.10;;;;;;5075744;28;20441;-81
2023/04/05 12:57:50;;;;;;;1.03;1.03;;;9.00;49.00;;;;;;5075602;28;20495;-81
2023/04/05 13:00:18;;;;;;;1.07;0.80;;;9.10;47.40;;;;;;5075257;28;21007;-81
2023/04/05 13:02:49;;;;;;;2.10;0.90;;;9.20;47.60;;;;;;5075530;28;20442;-81